Terminal Aerodrome Forecast
Issued by NWS

Home | Current Version | Previous Version | Text Only | Print | Product List | Glossary On
Versions: 1 2 3 4 5 6 7 8 9 10 11 12 13 14 15 16
000
FTPA31 PHFO 211739
TAFHNY
TAF
PHNY 211739Z 2118/2218 05010KT P6SM SCT020 BKN300
     FM212000 05014G20KT P6SM VCSH BKN020
     FM220200 05016G22KT P6SM VCSH SCT020 BKN035
     FM220600 05011KT P6SM FEW025 BKN300=

USA.gov is the U.S. government's official web portal to all federal, state and local government web resources and services.